»·PEaware :: N437PD KSBP-KAVX

N437PD :: KSBP-KAVX

FLIGHT INFORMATION

Flight Status: Arrived
Operator: Privately registered:
United States
More flights under this callsign
Pilot: Michael F. (10210)
Aircraft: CESSNA 182 SKYLANE
(C182)
More flights by this aircraft type
Origin: KSBP San Luis Co Regl
United States
Destination: KAVX Catalina
United States
More flights between these airports :: More routes between these airports
Route: RZS VTU V208 SXC
File this flight plan on PilotEdge
Remarks:
Altitude:
(Current/Filed)
7,500ft
Speed:
(Current/Filed)
130kts
Departed: 16-Dec-17 05:33 PM
Arrived: 16-Dec-17 06:47 PM
Distance/Time
Traveled:
156nm/1:13
Distance/Time
To Go:
Arrived

Flight Plot

Page will automatically refresh every two minutes.


Map Options




Map Legend


Flown Route
Filed Route
Departure Airport
Arrival Airport
Navaid (VOR, NDB)
Fix

Horizontal Profiles

Position Reports

Time Latitude Longitude Heading Altitude Ground
Speed
16-Dec-17 17:14 35.238445 -120.638650 267 215ft 0kts
16-Dec-17 17:15 35.238445 -120.638650 267 215ft 0kts
16-Dec-17 17:16 35.238445 -120.638650 267 215ft 0kts
16-Dec-17 17:17 35.238445 -120.638650 267 215ft 0kts
16-Dec-17 17:18 35.238445 -120.638650 267 215ft 0kts
16-Dec-17 17:19 35.238445 -120.638650 267 215ft 0kts
16-Dec-17 17:20 35.238445 -120.638650 267 215ft 0kts
16-Dec-17 17:21 35.238445 -120.638650 267 215ft 0kts
16-Dec-17 17:22 35.238445 -120.638653 267 215ft 0kts
16-Dec-17 17:23 35.238445 -120.638658 267 215ft 0kts
16-Dec-17 17:24 35.238445 -120.638662 267 215ft 0kts
16-Dec-17 17:25 35.238445 -120.638666 267 215ft 0kts
16-Dec-17 17:26 35.238444 -120.638671 267 215ft 0kts
16-Dec-17 17:27 35.238444 -120.638675 267 215ft 0kts
16-Dec-17 17:28 35.238444 -120.638681 267 215ft 0kts
16-Dec-17 17:29 35.238444 -120.638686 267 215ft 0kts
16-Dec-17 17:30 35.238444 -120.638691 267 215ft 0kts
16-Dec-17 17:31 35.238444 -120.638696 267 215ft 0kts
16-Dec-17 17:32 35.238441 -120.638732 258 215ft 2kts
16-Dec-17 17:33 35.236270 -120.637260 124 215ft 13kts
16-Dec-17 17:34 35.233892 -120.633080 124 215ft 13kts
16-Dec-17 17:35 35.233283 -120.632621 216 215ft 0kts
16-Dec-17 17:36 35.233280 -120.632624 216 215ft 0kts
16-Dec-17 17:37 35.233277 -120.632627 216 215ft 0kts
16-Dec-17 17:38 35.233275 -120.632629 216 215ft 0kts
16-Dec-17 17:39 35.234910 -120.636820 306 234ft 70kts
16-Dec-17 17:40 35.241121 -120.663046 213 1126ft 103kts
16-Dec-17 17:41 35.218941 -120.644428 131 2026ft 106kts
16-Dec-17 17:42 35.195817 -120.618720 131 2969ft 117kts
16-Dec-17 17:43 35.170581 -120.592033 130 3816ft 129kts
16-Dec-17 17:44 35.142478 -120.563961 138 4663ft 128kts
16-Dec-17 17:45 35.115575 -120.540360 133 5495ft 118kts
16-Dec-17 17:46 35.089265 -120.515219 132 6292ft 119kts
16-Dec-17 17:47 35.063920 -120.489421 131 7088ft 116kts
16-Dec-17 17:48 35.038717 -120.461296 129 7507ft 141kts
16-Dec-17 17:49 35.009253 -120.425990 127 7501ft 150kts
16-Dec-17 17:50 34.986197 -120.396147 127 7494ft 152kts
16-Dec-17 17:51 34.953733 -120.351326 120 7499ft 149kts
16-Dec-17 17:52 34.932435 -120.317877 121 7498ft 149kts
16-Dec-17 17:53 34.902807 -120.271393 121 7498ft 148kts
16-Dec-17 17:54 34.881832 -120.238123 121 7494ft 148kts
16-Dec-17 17:55 34.852851 -120.191654 120 7498ft 147kts
16-Dec-17 17:56 34.832349 -120.158223 120 7500ft 151kts
16-Dec-17 17:57 34.802114 -120.122826 130 7488ft 152kts
16-Dec-17 17:58 34.771892 -120.087523 130 7485ft 150kts
16-Dec-17 17:59 34.741971 -120.052085 131 7471ft 149kts
16-Dec-17 18:00 34.712240 -120.017050 130 7472ft 149kts
16-Dec-17 18:01 34.683025 -119.981525 130 7470ft 145kts
16-Dec-17 18:02 34.654449 -119.947422 131 7464ft 143kts
16-Dec-17 18:03 34.627127 -119.914549 131 7459ft 142kts
16-Dec-17 18:04 34.599029 -119.880519 131 7448ft 142kts
16-Dec-17 18:05 34.570956 -119.846362 131 7435ft 142kts
16-Dec-17 18:06 34.543035 -119.812190 130 7423ft 142kts
16-Dec-17 18:07 34.515135 -119.778176 130 7418ft 142kts
16-Dec-17 18:08 34.492310 -119.739616 119 7421ft 140kts
16-Dec-17 18:09 34.470880 -119.700171 119 7430ft 139kts
16-Dec-17 18:10 34.449706 -119.660902 119 7438ft 139kts
16-Dec-17 18:11 34.427736 -119.621833 120 7434ft 140kts
16-Dec-17 18:12 34.405902 -119.582635 120 7435ft 140kts
16-Dec-17 18:13 34.384123 -119.543370 120 7438ft 140kts
16-Dec-17 18:14 34.364330 -119.504909 119 7440ft 140kts
16-Dec-17 18:15 34.344150 -119.466904 118 7443ft 140kts
16-Dec-17 18:16 34.322550 -119.427809 119 7494ft 138kts
16-Dec-17 18:17 34.301863 -119.388468 118 7503ft 139kts
16-Dec-17 18:18 34.280084 -119.349446 119 7502ft 140kts
16-Dec-17 18:19 34.258367 -119.310036 119 7502ft 140kts
16-Dec-17 18:20 34.236417 -119.270893 120 7501ft 140kts
16-Dec-17 18:21 34.214924 -119.233027 120 7501ft 141kts
16-Dec-17 18:22 34.193188 -119.193467 119 7500ft 141kts
16-Dec-17 18:23 34.171886 -119.153942 119 7501ft 140kts
16-Dec-17 18:24 34.150517 -119.114328 119 7506ft 140kts
16-Dec-17 18:25 34.129134 -119.074759 118 7508ft 141kts
16-Dec-17 18:26 34.101121 -119.044259 175 7513ft 149kts
16-Dec-17 18:27 34.059180 -119.043054 175 7510ft 150kts
16-Dec-17 18:28 34.017497 -119.039530 172 7508ft 150kts
16-Dec-17 18:29 33.975798 -119.035890 172 7508ft 150kts
16-Dec-17 18:30 33.933897 -119.031843 172 7507ft 150kts
16-Dec-17 18:31 33.892090 -119.026745 170 7504ft 150kts
16-Dec-17 18:32 33.850399 -119.021568 170 7503ft 150kts
16-Dec-17 18:33 33.808615 -119.016940 171 7502ft 151kts
16-Dec-17 18:34 33.775398 -118.993390 124 7508ft 142kts
16-Dec-17 18:35 33.750263 -118.956406 125 7503ft 143kts
16-Dec-17 18:36 33.724922 -118.919231 124 7504ft 143kts
16-Dec-17 18:37 33.698846 -118.882897 126 7500ft 144kts
16-Dec-17 18:38 33.672388 -118.846865 127 7500ft 144kts
16-Dec-17 18:39 33.646261 -118.810365 125 7500ft 143kts
16-Dec-17 18:40 33.621381 -118.774727 124 7499ft 144kts
16-Dec-17 18:41 33.596159 -118.738547 124 7486ft 134kts
16-Dec-17 18:42 33.571105 -118.701517 125 6829ft 147kts
16-Dec-17 18:43 33.545728 -118.664017 124 6123ft 141kts
16-Dec-17 18:44 33.521833 -118.627939 125 5393ft 137kts
16-Dec-17 18:45 33.497385 -118.592999 127 4683ft 135kts
16-Dec-17 18:46 33.474738 -118.558360 123 4091ft 127kts
16-Dec-17 18:47 33.455233 -118.523773 122 3801ft 130kts
16-Dec-17 18:48 33.436495 -118.486688 119 3332ft 130kts
16-Dec-17 18:49 33.419339 -118.449183 119 2887ft 127kts
16-Dec-17 18:50 33.423945 -118.412328 52 2607ft 114kts
16-Dec-17 18:51 33.428538 -118.387531 190 2370ft 90kts
16-Dec-17 18:52 33.412786 -118.402521 233 1920ft 67kts
16-Dec-17 18:53 33.403137 -118.418872 238 1605ft 8kts
16-Dec-17 18:54 33.402348 -118.419556 53 1605ft 1kts
16-Dec-17 18:55 33.403696 -118.417270 55 1605ft 10kts
16-Dec-17 18:56 33.403570 -118.415752 144 1605ft 0kts

Navigation Log

Ident Type
1. KSBP Airport
2. RZS Navaid
3. VTU Navaid
4. WEEZL Fix
5. SXC Navaid
6. KAVX Airport